Time;durP1;ratioP1;P1;durP2;ratioP2;P2;SDS_P1;SDS_P2;PMS_P1;PMS_P2;Temp;Humidity;BMP_temperature;BMP_pressure;BME280_temperature;BME280_humidity;BME280_pressure;Samples;Min_cycle;Max_cycle;Signal;HPM_P1;HPM_P2
2022/02/16 00:00:06;;;;;;;0.30;0.30;;;19.20;99.90;;;;;;5027501;28;20040;-66
2022/02/16 00:02:41;;;;;;;0.30;0.30;;;19.20;99.90;;;;;;5021463;28;20068;-66
2022/02/16 00:05:11;;;;;;;0.30;0.30;;;19.20;99.90;;;;;;5009988;28;20061;-66
2022/02/16 00:07:40;;;;;;;0.40;0.40;;;19.10;99.90;;;;;;5008995;28;20046;-67
2022/02/16 00:10:09;;;;;;;0.63;0.63;;;19.10;99.90;;;;;;5003303;28;20053;-68
2022/02/16 00:12:38;;;;;;;0.60;0.60;;;19.10;99.90;;;;;;5006687;28;20056;-65
2022/02/16 00:15:07;;;;;;;0.32;0.32;;;19.10;99.90;;;;;;5013833;28;20042;-66
2022/02/16 00:17:36;;;;;;;0.40;0.40;;;19.10;99.90;;;;;;5018821;28;20057;-63
2022/02/16 00:20:08;;;;;;;0.30;0.30;;;19.10;99.90;;;;;;5008080;28;20042;-66
2022/02/16 00:22:35;;;;;;;0.30;0.30;;;19.10;99.90;;;;;;5014458;28;20038;-66
2022/02/16 00:25:04;;;;;;;0.40;0.40;;;19.10;99.90;;;;;;5012233;28;20049;-67
2022/02/16 00:27:31;;;;;;;0.30;0.30;;;19.10;99.90;;;;;;5022817;28;20065;-67
2022/02/16 00:29:58;;;;;;;0.30;0.30;;;19.10;99.90;;;;;;5010422;28;20528;-69
2022/02/16 00:32:26;;;;;;;;;;;19.00;99.90;;;;;;5029253;28;20068;-66
2022/02/16 00:34:53;;;;;;;0.30;0.30;;;19.00;99.90;;;;;;5009414;28;19928;-67
2022/02/16 00:37:21;;;;;;;1.08;1.05;;;19.10;99.90;;;;;;5014550;28;20049;-64
2022/02/16 00:39:50;;;;;;;0.50;0.50;;;19.00;99.90;;;;;;5022127;28;20056;-67
2022/02/16 00:42:17;;;;;;;0.30;0.30;;;19.10;99.90;;;;;;5026025;28;20587;-65
2022/02/16 00:44:44;;;;;;;1.25;0.88;;;19.00;99.90;;;;;;5018741;28;20068;-65
2022/02/16 00:47:12;;;;;;;0.30;0.30;;;19.10;99.90;;;;;;5027571;28;20575;-64
2022/02/16 00:49:40;;;;;;;0.38;0.38;;;19.00;99.90;;;;;;5002069;28;20062;-65
2022/02/16 00:52:07;;;;;;;0.30;0.30;;;19.00;99.90;;;;;;5010206;28;20057;-67
2022/02/16 00:54:37;;;;;;;0.30;0.30;;;19.00;99.90;;;;;;5011967;28;20377;-67
2022/02/16 00:57:05;;;;;;;0.30;0.30;;;19.00;99.90;;;;;;5002120;28;20441;-66
2022/02/16 00:59:33;;;;;;;0.45;0.45;;;19.00;99.90;;;;;;5014553;28;20053;-66
2022/02/16 01:02:05;;;;;;;0.30;0.30;;;19.00;99.90;;;;;;4999669;28;20049;-66
2022/02/16 01:04:33;;;;;;;0.57;0.57;;;19.00;99.90;;;;;;5010852;28;20045;-63
2022/02/16 01:07:01;;;;;;;1.00;0.47;;;19.00;99.90;;;;;;5025574;28;20057;-65
2022/02/16 01:09:31;;;;;;;0.30;0.30;;;19.00;99.90;;;;;;5006757;28;20428;-64
2022/02/16 01:11:59;;;;;;;0.32;0.32;;;19.00;99.90;;;;;;5002903;28;20053;-65
2022/02/16 01:14:31;;;;;;;0.40;0.40;;;19.00;99.90;;;;;;5004318;28;20060;-66
2022/02/16 01:17:12;;;;;;;0.40;0.40;;;19.00;99.90;;;;;;4997993;28;20045;-67
2022/02/16 01:19:54;;;;;;;0.30;0.30;;;19.00;99.90;;;;;;4990594;28;20521;-66
2022/02/16 01:22:25;;;;;;;0.38;0.38;;;19.00;99.90;;;;;;5002196;28;20050;-67
2022/02/16 01:24:53;;;;;;;0.30;0.30;;;19.00;99.90;;;;;;4999868;28;20050;-64
2022/02/16 01:27:23;;;;;;;0.40;0.40;;;19.00;99.90;;;;;;5011826;28;20049;-66
2022/02/16 01:29:54;;;;;;;0.30;0.30;;;19.00;99.90;;;;;;4999417;28;20049;-66
2022/02/16 01:32:31;;;;;;;0.30;0.30;;;18.90;99.90;;;;;;5012882;28;20054;-66
2022/02/16 01:35:00;;;;;;;1.02;0.68;;;18.90;99.90;;;;;;4997586;28;20350;-66
2022/02/16 01:37:29;;;;;;;0.30;0.30;;;18.90;99.90;;;;;;5005421;28;20056;-66
2022/02/16 01:39:57;;;;;;;1.25;0.73;;;18.90;99.90;;;;;;5005946;28;20045;-66
2022/02/16 01:42:26;;;;;;;0.30;0.30;;;18.90;99.90;;;;;;5011574;28;20550;-65
2022/02/16 01:44:59;;;;;;;0.30;0.30;;;18.90;99.90;;;;;;5005710;28;20057;-65
2022/02/16 01:47:27;;;;;;;0.30;0.30;;;18.90;99.90;;;;;;5006116;28;20053;-65
2022/02/16 01:49:54;;;;;;;0.30;0.30;;;18.80;99.90;;;;;;4993374;28;20057;-66
2022/02/16 01:52:22;;;;;;;0.30;0.30;;;18.90;99.90;;;;;;5003746;28;20065;-66
2022/02/16 01:54:52;;;;;;;0.30;0.30;;;18.90;99.90;;;;;;4998874;28;20049;-64
2022/02/16 01:57:20;;;;;;;0.30;0.30;;;18.90;99.90;;;;;;5010679;28;20068;-66
2022/02/16 01:59:54;;;;;;;1.55;0.63;;;18.90;99.90;;;;;;5000617;28;20045;-67
2022/02/16 02:02:42;;;;;;;0.30;0.30;;;18.80;99.90;;;;;;5026037;28;20457;-69
2022/02/16 02:05:19;;;;;;;0.30;0.30;;;18.90;99.90;;;;;;5026909;28;20053;-68
2022/02/16 02:07:47;;;;;;;0.40;0.40;;;18.80;99.90;;;;;;5020411;28;20053;-70
2022/02/16 02:10:14;;;;;;;0.30;0.30;;;18.80;99.90;;;;;;5012863;28;20057;-67
2022/02/16 02:12:48;;;;;;;0.30;0.30;;;18.80;99.90;;;;;;5032559;28;20057;-68
2022/02/16 02:15:21;;;;;;;0.30;0.30;;;18.80;99.90;;;;;;5018826;28;20046;-68
2022/02/16 02:18:00;;;;;;;0.30;0.30;;;18.80;99.90;;;;;;5019288;28;20056;-65
2022/02/16 02:20:29;;;;;;;0.47;0.47;;;18.80;99.90;;;;;;5024854;28;20061;-66
2022/02/16 02:22:57;;;;;;;0.52;0.50;;;18.80;99.90;;;;;;5028808;28;20073;-67
2022/02/16 02:25:25;;;;;;;0.35;0.35;;;18.80;99.90;;;;;;5013184;28;20054;-68
2022/02/16 02:27:53;;;;;;;;;;;18.80;99.90;;;;;;5018766;28;20101;-66
2022/02/16 02:30:22;;;;;;;0.40;0.40;;;18.80;99.90;;;;;;4997531;28;19921;-67
2022/02/16 02:32:50;;;;;;;0.30;0.30;;;18.80;99.90;;;;;;5004774;28;20053;-66
2022/02/16 02:35:18;;;;;;;0.40;0.40;;;18.80;99.90;;;;;;5016769;28;20042;-66
2022/02/16 02:37:45;;;;;;;0.30;0.30;;;18.80;99.90;;;;;;5025596;28;20056;-67
2022/02/16 02:40:12;;;;;;;0.30;0.30;;;18.80;99.90;;;;;;5022945;28;20045;-66
2022/02/16 02:42:44;;;;;;;0.30;0.30;;;18.80;99.90;;;;;;5010488;28;20053;-67
2022/02/16 02:45:14;;;;;;;0.50;0.50;;;18.70;99.90;;;;;;5004166;28;20049;-67
2022/02/16 02:47:42;;;;;;;0.40;0.40;;;18.70;99.90;;;;;;5007785;28;20062;-65
2022/02/16 02:50:10;;;;;;;0.38;0.38;;;18.70;99.90;;;;;;5005943;28;20555;-68
2022/02/16 02:52:37;;;;;;;0.60;0.60;;;18.60;99.90;;;;;;5006417;28;20425;-65
2022/02/16 02:55:08;;;;;;;0.30;0.30;;;18.60;99.90;;;;;;5003066;28;20065;-66
2022/02/16 02:57:40;;;;;;;0.30;0.30;;;18.60;99.90;;;;;;5009066;28;20053;-64
2022/02/16 03:00:11;;;;;;;0.50;0.50;;;18.60;99.90;;;;;;4999675;28;20050;-67
2022/02/16 03:02:40;;;;;;;0.30;0.30;;;18.60;99.90;;;;;;5007617;28;20490;-66
2022/02/16 03:05:10;;;;;;;0.32;0.32;;;18.60;99.90;;;;;;5037387;28;20417;-68
2022/02/16 03:07:41;;;;;;;0.30;0.30;;;18.50;99.90;;;;;;5016310;28;20045;-65
2022/02/16 03:10:08;;;;;;;0.65;0.65;;;18.60;99.90;;;;;;5008584;28;20406;-66
2022/02/16 03:12:36;;;;;;;0.30;0.30;;;18.50;99.90;;;;;;5004910;28;20823;-66
2022/02/16 03:15:05;;;;;;;0.30;0.30;;;18.50;99.90;;;;;;5000379;28;20420;-66
2022/02/16 03:17:39;;;;;;;2.30;0.80;;;18.50;99.90;;;;;;5007327;28;20065;-65
2022/02/16 03:20:08;;;;;;;0.40;0.40;;;18.60;99.90;;;;;;4979087;28;20046;-68
2022/02/16 03:22:37;;;;;;;0.45;0.45;;;18.60;99.90;;;;;;5016254;28;20073;-66
2022/02/16 03:25:06;;;;;;;0.30;0.30;;;18.60;99.90;;;;;;5006977;28;20050;-67
2022/02/16 03:27:34;;;;;;;1.55;0.98;;;18.60;99.90;;;;;;4991568;28;20064;-67
2022/02/16 03:30:09;;;;;;;0.30;0.30;;;18.60;99.90;;;;;;5007817;28;20053;-67
2022/02/16 03:32:53;;;;;;;0.30;0.30;;;18.60;99.90;;;;;;4996777;28;20397;-64
2022/02/16 03:35:21;;;;;;;0.25;0.25;;;18.60;99.90;;;;;;4988009;28;20080;-65
2022/02/16 03:37:49;;;;;;;0.30;0.30;;;18.60;99.90;;;;;;5020097;28;20064;-67
2022/02/16 03:40:17;;;;;;;0.30;0.30;;;18.60;99.90;;;;;;5010849;28;20037;-66
2022/02/16 03:42:44;;;;;;;0.30;0.30;;;18.60;99.90;;;;;;5000985;28;20042;-65
2022/02/16 03:45:12;;;;;;;1.40;1.17;;;18.60;99.90;;;;;;5008307;28;20049;-65
2022/02/16 03:47:49;;;;;;;0.57;0.57;;;18.60;99.90;;;;;;5016775;28;20054;-63
2022/02/16 03:50:17;;;;;;;0.40;0.40;;;18.60;99.90;;;;;;5029794;28;20132;-65
2022/02/16 03:52:44;;;;;;;0.73;0.73;;;18.60;99.90;;;;;;4998695;28;20045;-65
2022/02/16 03:55:12;;;;;;;0.30;0.30;;;18.60;99.90;;;;;;5018908;28;20057;-65
2022/02/16 03:57:39;;;;;;;0.30;0.30;;;18.50;99.90;;;;;;5022007;28;20101;-64
2022/02/16 04:00:09;;;;;;;0.30;0.30;;;18.50;99.90;;;;;;4989030;28;20073;-65
2022/02/16 04:02:46;;;;;;;0.20;0.20;;;18.50;99.90;;;;;;5008291;28;20060;-66
2022/02/16 04:05:14;;;;;;;0.30;0.30;;;18.50;99.90;;;;;;5000540;28;20049;-66
2022/02/16 04:07:44;;;;;;;1.98;0.73;;;18.50;99.90;;;;;;5003047;28;20054;-66
2022/02/16 04:10:13;;;;;;;0.30;0.30;;;18.50;99.90;;;;;;5006165;28;20065;-65
2022/02/16 04:12:41;;;;;;;0.30;0.30;;;18.50;99.90;;;;;;5008429;28;20456;-66
2022/02/16 04:15:08;;;;;;;0.35;0.32;;;18.50;99.90;;;;;;5014489;28;20061;-67
2022/02/16 04:17:41;;;;;;;0.30;0.30;;;18.50;99.90;;;;;;4995343;28;20053;-65
2022/02/16 04:20:12;;;;;;;0.85;0.68;;;18.50;99.90;;;;;;5006260;28;20066;-65
2022/02/16 04:22:43;;;;;;;1.17;0.65;;;18.50;99.90;;;;;;5004537;28;20129;-66
2022/02/16 04:25:14;;;;;;;0.40;0.40;;;18.50;99.90;;;;;;4993012;28;20049;-65
2022/02/16 04:27:45;;;;;;;0.30;0.30;;;18.50;99.90;;;;;;4989155;28;20046;-68
2022/02/16 04:30:12;;;;;;;1.08;0.63;;;18.50;99.90;;;;;;4994409;28;20395;-64
2022/02/16 04:32:42;;;;;;;0.57;0.57;;;18.40;99.90;;;;;;5001902;28;20054;-66
2022/02/16 04:35:10;;;;;;;0.32;0.32;;;18.50;99.90;;;;;;4995266;28;20468;-64
2022/02/16 04:37:38;;;;;;;0.30;0.30;;;18.50;99.90;;;;;;5008899;28;20033;-66
2022/02/16 04:40:08;;;;;;;0.30;0.30;;;18.40;99.90;;;;;;5005647;28;20409;-67
2022/02/16 04:42:36;;;;;;;0.40;0.40;;;18.50;99.90;;;;;;5025100;28;20045;-64
2022/02/16 04:45:04;;;;;;;0.40;0.40;;;18.40;99.90;;;;;;4989214;28;20478;-66
2022/02/16 04:47:35;;;;;;;0.47;0.47;;;18.40;99.90;;;;;;5006903;28;20053;-66
2022/02/16 04:50:03;;;;;;;0.30;0.30;;;18.50;99.90;;;;;;4999525;28;20048;-66
2022/02/16 04:52:37;;;;;;;0.30;0.30;;;18.50;99.90;;;;;;5003693;28;20058;-67
2022/02/16 04:55:14;;;;;;;0.30;0.30;;;18.50;99.90;;;;;;5001862;28;20170;-67
2022/02/16 04:57:44;;;;;;;0.30;0.30;;;18.60;99.90;;;;;;4996345;28;20080;-65
2022/02/16 05:00:11;;;;;;;0.30;0.30;;;18.70;99.90;;;;;;4990957;28;20057;-65
2022/02/16 05:02:48;;;;;;;0.40;0.40;;;18.80;99.90;;;;;;5003983;28;20057;-64
2022/02/16 05:05:16;;;;;;;0.30;0.30;;;18.90;99.90;;;;;;5018331;28;20054;-67
2022/02/16 05:07:43;;;;;;;0.30;0.30;;;19.00;99.90;;;;;;5006644;28;21430;-65
2022/02/16 05:10:11;;;;;;;0.30;0.30;;;19.10;99.90;;;;;;4996549;28;20065;-70
2022/02/16 05:12:41;;;;;;;0.30;0.30;;;19.30;99.90;;;;;;5008364;28;20050;-65
2022/02/16 05:15:08;;;;;;;0.30;0.30;;;19.40;99.90;;;;;;5005304;28;20046;-65
2022/02/16 05:17:37;;;;;;;0.30;0.30;;;19.50;99.90;;;;;;5008552;28;20050;-66
2022/02/16 05:20:12;;;;;;;0.30;0.30;;;19.60;99.90;;;;;;5014194;28;20408;-65
2022/02/16 05:22:39;;;;;;;0.30;0.30;;;19.70;99.90;;;;;;5025609;28;20050;-66
2022/02/16 05:25:07;;;;;;;2.17;1.15;;;19.90;99.90;;;;;;5025059;28;20060;-65
2022/02/16 05:27:34;;;;;;;0.30;0.30;;;20.00;99.90;;;;;;5027736;28;20076;-65
2022/02/16 05:30:04;;;;;;;0.45;0.45;;;20.20;99.90;;;;;;5012035;28;20045;-67
2022/02/16 05:32:34;;;;;;;0.30;0.30;;;20.30;99.90;;;;;;5010321;28;20049;-66
2022/02/16 05:35:02;;;;;;;0.30;0.30;;;20.40;99.90;;;;;;5020412;28;20046;-66
2022/02/16 05:37:29;;;;;;;0.30;0.30;;;20.50;99.90;;;;;;5026638;28;20054;-66
2022/02/16 05:39:57;;;;;;;0.30;0.30;;;20.60;99.90;;;;;;5006396;28;20041;-67
2022/02/16 05:42:25;;;;;;;0.40;0.40;;;20.80;99.90;;;;;;5003603;28;20056;-69
2022/02/16 05:44:55;;;;;;;0.68;0.43;;;20.90;99.90;;;;;;5003249;28;20401;-65
2022/02/16 05:47:23;;;;;;;0.30;0.30;;;20.90;99.90;;;;;;5002483;28;20060;-64
2022/02/16 05:49:50;;;;;;;;;;;21.10;99.90;;;;;;4989033;28;20058;-66
2022/02/16 05:52:18;;;;;;;0.30;0.30;;;21.20;99.90;;;;;;5027936;28;19928;-67
2022/02/16 05:54:45;;;;;;;0.30;0.30;;;21.40;99.90;;;;;;5011663;28;20053;-64
2022/02/16 05:57:12;;;;;;;0.30;0.30;;;21.50;99.90;;;;;;5025990;28;20053;-64
2022/02/16 05:59:40;;;;;;;0.30;0.30;;;21.50;99.90;;;;;;5006028;28;20501;-67
2022/02/16 06:02:07;;;;;;;0.68;0.68;;;21.60;99.90;;;;;;5003097;28;20050;-66
2022/02/16 06:04:35;;;;;;;0.38;0.38;;;21.50;99.90;;;;;;5023985;28;20045;-66
2022/02/16 06:07:03;;;;;;;1.80;1.63;;;20.80;99.90;;;;;;5009007;28;20540;-65
2022/02/16 06:09:33;;;;;;;0.30;0.30;;;19.50;99.90;;;;;;5010397;28;20521;-67
2022/02/16 06:12:03;;;;;;;0.38;0.38;;;18.80;99.90;;;;;;5017649;28;20053;-68
2022/02/16 06:14:31;;;;;;;0.77;0.77;;;19.10;99.90;;;;;;5024095;28;20053;-69
2022/02/16 06:17:11;;;;;;;0.30;0.30;;;19.80;99.90;;;;;;5009806;28;20053;-67
2022/02/16 06:19:38;;;;;;;0.30;0.30;;;20.40;99.90;;;;;;4996533;28;20046;-67
2022/02/16 06:22:06;;;;;;;1.20;0.95;;;20.70;99.90;;;;;;5008260;28;20060;-67
2022/02/16 06:24:34;;;;;;;0.38;0.38;;;21.00;99.90;;;;;;4998808;28;20461;-65
2022/02/16 06:27:01;;;;;;;0.85;0.43;;;21.10;99.90;;;;;;5016153;28;20060;-66
2022/02/16 06:29:29;;;;;;;0.30;0.30;;;21.20;99.90;;;;;;5004356;28;20596;-65
2022/02/16 06:32:16;;;;;;;0.30;0.30;;;21.30;99.90;;;;;;5023289;28;20080;-66
2022/02/16 06:34:44;;;;;;;0.50;0.50;;;21.40;99.90;;;;;;5005279;28;20519;-67
2022/02/16 06:37:15;;;;;;;1.75;1.65;;;21.40;99.90;;;;;;5004743;28;20061;-67
2022/02/16 06:39:43;;;;;;;0.40;0.40;;;21.40;99.90;;;;;;5003749;28;20092;-67
2022/02/16 06:42:13;;;;;;;0.50;0.50;;;21.40;99.90;;;;;;5038346;28;20053;-70
2022/02/16 06:44:41;;;;;;;;;;;21.50;99.90;;;;;;5008350;28;20052;-68
2022/02/16 06:47:09;;;;;;;0.70;0.52;;;21.50;99.90;;;;;;5027687;28;19921;-68
2022/02/16 06:49:38;;;;;;;0.30;0.30;;;21.50;99.90;;;;;;5027455;28;20057;-64
2022/02/16 06:52:07;;;;;;;0.20;0.20;;;21.50;99.90;;;;;;5008875;28;20068;-66
2022/02/16 06:54:36;;;;;;;0.40;0.40;;;21.50;99.90;;;;;;5006854;28;20049;-65
2022/02/16 06:57:04;;;;;;;0.60;0.60;;;21.60;99.90;;;;;;5011994;28;20532;-67
2022/02/16 06:59:58;;;;;;;0.30;0.30;;;21.60;99.90;;;;;;5015988;28;20053;-63
2022/02/16 07:02:26;;;;;;;2.17;1.20;;;21.50;99.90;;;;;;5009996;28;20050;-62
2022/02/16 07:04:54;;;;;;;;;;;21.50;99.90;;;;;;5004553;28;20056;-61
2022/02/16 07:07:22;;;;;;;;;;;21.50;99.90;;;;;;5018990;28;20004;-62
2022/02/16 07:09:49;;;;;;;0.32;0.32;;;21.50;99.90;;;;;;5020039;28;20388;-62
2022/02/16 07:12:28;;;;;;;0.55;0.52;;;21.40;99.90;;;;;;5021625;28;20473;-62
2022/02/16 07:14:56;;;;;;;0.40;0.40;;;21.40;99.90;;;;;;5029556;28;20041;-65
2022/02/16 07:17:25;;;;;;;4.03;1.85;;;21.30;99.90;;;;;;5014439;28;20061;-62
2022/02/16 07:19:54;;;;;;;0.30;0.30;;;21.30;99.90;;;;;;4999676;28;20057;-64
2022/02/16 07:22:27;;;;;;;0.30;0.30;;;21.30;99.90;;;;;;5018443;28;20054;-58
2022/02/16 07:24:55;;;;;;;3.83;1.67;;;21.30;99.90;;;;;;5010956;28;20061;-63
2022/02/16 07:27:23;;;;;;;0.50;0.50;;;21.20;99.90;;;;;;5003933;28;20053;-65
2022/02/16 07:29:50;;;;;;;0.70;0.70;;;21.20;99.90;;;;;;4999913;28;20053;-63
2022/02/16 07:32:18;;;;;;;0.20;0.20;;;21.20;99.90;;;;;;5023390;28;20045;-63
2022/02/16 07:34:46;;;;;;;1.50;0.88;;;21.10;99.90;;;;;;5001782;28;20054;-63
2022/02/16 07:37:16;;;;;;;0.68;0.68;;;21.10;99.90;;;;;;5005320;28;20041;-64
2022/02/16 07:39:44;;;;;;;;;;;21.10;99.90;;;;;;5002170;28;20056;-63
2022/02/16 07:42:17;;;;;;;0.30;0.30;;;21.00;99.90;;;;;;5007506;28;19921;-63
2022/02/16 07:44:47;;;;;;;1.58;1.15;;;21.00;99.90;;;;;;5004443;28;20045;-63
2022/02/16 07:47:24;;;;;;;0.70;0.70;;;21.00;99.90;;;;;;5020572;28;20048;-63
2022/02/16 07:49:55;;;;;;;0.47;0.47;;;21.00;99.90;;;;;;5019558;28;20068;-63
2022/02/16 07:52:35;;;;;;;2.55;1.48;;;21.00;99.90;;;;;;5029997;28;20053;-65
2022/02/16 07:55:22;;;;;;;0.30;0.30;;;21.10;99.90;;;;;;5031418;28;20055;-64
2022/02/16 07:57:50;;;;;;;0.30;0.30;;;21.20;99.90;;;;;;5005980;28;20262;-64
2022/02/16 08:00:17;;;;;;;0.30;0.30;;;21.30;99.90;;;;;;5000125;28;20050;-64
2022/02/16 08:02:56;;;;;;;0.20;0.20;;;21.40;99.90;;;;;;5000529;28;20045;-64
2022/02/16 08:05:24;;;;;;;0.63;0.63;;;21.50;99.90;;;;;;5008581;28;20052;-63
2022/02/16 08:07:54;;;;;;;;;;;21.60;99.90;;;;;;5022455;28;20049;-64
2022/02/16 08:10:22;;;;;;;0.43;0.43;;;21.60;99.90;;;;;;5020801;28;19924;-64
2022/02/16 08:12:52;;;;;;;1.52;0.63;;;21.70;99.90;;;;;;5033700;28;20493;-65
2022/02/16 08:15:21;;;;;;;0.40;0.40;;;21.70;99.90;;;;;;5005375;28;20057;-64
2022/02/16 08:17:48;;;;;;;0.30;0.30;;;21.70;99.90;;;;;;4999712;28;20041;-64
2022/02/16 08:20:17;;;;;;;0.50;0.50;;;21.70;99.90;;;;;;5004187;28;20060;-64
2022/02/16 08:23:19;;;;;;;1.55;0.95;;;21.80;99.90;;;;;;5007292;28;20076;-64
2022/02/16 08:25:48;;;;;;;0.40;0.40;;;21.70;99.90;;;;;;5008624;28;20057;-64
2022/02/16 08:28:20;;;;;;;0.30;0.30;;;21.70;99.90;;;;;;5004069;28;20061;-65
2022/02/16 08:30:48;;;;;;;0.40;0.40;;;21.60;99.90;;;;;;5007794;28;20416;-65
2022/02/16 08:33:25;;;;;;;0.30;0.30;;;21.70;99.90;;;;;;5004139;28;20561;-65
2022/02/16 08:36:06;;;;;;;0.30;0.30;;;21.60;99.90;;;;;;5023795;28;20068;-65
2022/02/16 08:38:35;;;;;;;0.40;0.40;;;21.60;99.90;;;;;;5014250;28;20052;-61
2022/02/16 08:41:04;;;;;;;0.30;0.30;;;21.60;99.90;;;;;;5014905;28;20068;-63
2022/02/16 08:43:31;;;;;;;3.20;1.75;;;21.60;99.90;;;;;;5023747;28;20049;-63
2022/02/16 08:45:59;;;;;;;0.30;0.30;;;21.50;99.90;;;;;;5003784;28;20045;-63
2022/02/16 08:48:27;;;;;;;1.75;1.33;;;21.50;99.90;;;;;;5023225;28;20459;-63
2022/02/16 08:50:56;;;;;;;1.77;1.05;;;21.50;99.90;;;;;;5020012;28;20057;-62
2022/02/16 08:53:26;;;;;;;0.85;0.70;;;21.50;99.90;;;;;;5023897;28;20077;-62
2022/02/16 08:55:58;;;;;;;0.30;0.30;;;21.40;99.90;;;;;;5012182;28;20053;-65
2022/02/16 08:58:27;;;;;;;0.50;0.50;;;21.40;99.90;;;;;;5018631;28;20057;-64
2022/02/16 09:00:55;;;;;;;0.35;0.35;;;21.30;99.90;;;;;;5018309;28;20441;-65
2022/02/16 09:03:24;;;;;;;0.50;0.50;;;21.30;99.90;;;;;;5025427;28;20500;-64
2022/02/16 09:05:51;;;;;;;0.38;0.38;;;21.20;99.90;;;;;;5026652;28;20045;-64
2022/02/16 09:08:19;;;;;;;0.20;0.20;;;21.20;99.90;;;;;;5003734;28;20049;-63
2022/02/16 09:10:47;;;;;;;0.30;0.30;;;21.20;99.90;;;;;;5016594;28;20049;-64
2022/02/16 09:13:15;;;;;;;0.30;0.30;;;21.10;99.90;;;;;;5016503;28;20046;-62
2022/02/16 09:15:42;;;;;;;0.30;0.30;;;21.10;99.90;;;;;;5006140;28;20045;-63
2022/02/16 09:18:09;;;;;;;0.40;0.40;;;21.10;99.90;;;;;;5021057;28;20302;-63
2022/02/16 09:20:37;;;;;;;0.30;0.30;;;21.00;99.90;;;;;;5020279;28;20049;-62
2022/02/16 09:23:04;;;;;;;0.30;0.30;;;21.00;99.90;;;;;;5022590;28;20845;-63
2022/02/16 09:25:32;;;;;;;0.57;0.57;;;21.00;99.90;;;;;;5023696;28;20148;-63
2022/02/16 09:27:59;;;;;;;0.30;0.30;;;21.00;99.90;;;;;;5018213;28;20054;-61
2022/02/16 09:30:30;;;;;;;0.73;0.43;;;21.00;99.90;;;;;;5018094;28;20042;-62
2022/02/16 09:32:58;;;;;;;2.95;1.75;;;21.10;99.90;;;;;;4999824;28;20050;-62
2022/02/16 09:35:26;;;;;;;0.65;0.47;;;21.20;99.90;;;;;;5018743;28;20421;-62
2022/02/16 09:37:53;;;;;;;0.30;0.30;;;21.30;99.90;;;;;;5017482;28;20053;-65
2022/02/16 09:40:21;;;;;;;1.20;0.90;;;21.40;99.90;;;;;;5026126;28;20377;-64
2022/02/16 09:42:49;;;;;;;0.25;0.25;;;21.50;99.90;;;;;;5026864;28;20493;-64
2022/02/16 09:45:16;;;;;;;;;;;21.50;99.90;;;;;;5000182;28;20057;-64
2022/02/16 09:47:44;;;;;;;0.40;0.40;;;21.60;99.90;;;;;;5013868;28;19929;-62
2022/02/16 09:50:15;;;;;;;0.68;0.68;;;21.70;99.90;;;;;;5023217;28;20396;-64
2022/02/16 09:52:43;;;;;;;0.30;0.30;;;21.70;99.90;;;;;;5021629;28;20054;-62
2022/02/16 09:55:12;;;;;;;0.30;0.30;;;21.80;99.90;;;;;;5001215;28;20061;-63
2022/02/16 09:57:40;;;;;;;0.30;0.30;;;21.70;99.90;;;;;;5023447;28;20049;-64
2022/02/16 10:00:09;;;;;;;0.30;0.30;;;21.70;99.90;;;;;;5023524;28;20049;-63
2022/02/16 10:02:42;;;;;;;0.30;0.30;;;21.70;99.90;;;;;;5006574;28;20053;-64
2022/02/16 10:05:12;;;;;;;0.40;0.40;;;21.70;99.90;;;;;;5028879;28;20045;-64
2022/02/16 10:07:47;;;;;;;1.02;0.65;;;21.70;99.90;;;;;;5032251;28;20046;-63
2022/02/16 10:10:21;;;;;;;0.30;0.30;;;21.70;99.90;;;;;;5026106;28;20400;-63
2022/02/16 10:12:53;;;;;;;0.32;0.32;;;21.60;99.90;;;;;;5023443;28;20049;-62
2022/02/16 10:15:33;;;;;;;0.43;0.43;;;21.60;99.90;;;;;;5026498;28;20184;-63
2022/02/16 10:18:18;;;;;;;0.30;0.30;;;21.60;99.90;;;;;;5018675;28;20042;-63
2022/02/16 10:20:46;;;;;;;0.30;0.30;;;21.60;99.90;;;;;;5006322;28;20045;-62
2022/02/16 10:23:18;;;;;;;0.77;0.77;;;21.60;99.90;;;;;;5017322;28;20049;-65
2022/02/16 10:25:50;;;;;;;0.30;0.30;;;21.50;99.90;;;;;;5024368;28;20464;-64
2022/02/16 10:28:21;;;;;;;0.30;0.30;;;21.50;99.90;;;;;;5027893;28;20035;-66
2022/02/16 10:30:58;;;;;;;0.60;0.60;;;21.50;99.90;;;;;;5027637;28;20072;-64
2022/02/16 10:33:30;;;;;;;0.30;0.30;;;21.50;99.90;;;;;;5022150;28;20057;-62
2022/02/16 10:36:06;;;;;;;0.35;0.35;;;21.50;99.90;;;;;;5025564;28;20696;-64
2022/02/16 10:38:57;;;;;;;1.65;1.05;;;21.50;99.90;;;;;;5035939;28;20049;-65
2022/02/16 10:41:31;;;;;;;0.30;0.30;;;21.50;99.90;;;;;;5036147;28;20053;-63
2022/02/16 10:43:59;;;;;;;0.30;0.30;;;21.40;99.90;;;;;;5023609;28;20064;-61
2022/02/16 10:46:30;;;;;;;0.30;0.30;;;21.40;99.90;;;;;;5024288;28;20041;-63
2022/02/16 10:49:13;;;;;;;0.30;0.30;;;21.40;99.90;;;;;;5027270;28;20050;-63
2022/02/16 10:52:08;;;;;;;0.40;0.40;;;21.40;99.90;;;;;;5023180;28;20048;-65
2022/02/16 10:54:37;;;;;;;0.30;0.30;;;21.30;99.90;;;;;;5018844;28;20416;-64
2022/02/16 10:57:04;;;;;;;0.40;0.40;;;21.30;99.90;;;;;;5021305;28;20057;-63
2022/02/16 10:59:32;;;;;;;0.30;0.30;;;21.30;99.90;;;;;;5022257;28;20054;-64
2022/02/16 11:02:05;;;;;;;0.43;0.43;;;21.30;99.90;;;;;;5025266;28;20072;-63
2022/02/16 11:04:35;;;;;;;0.30;0.30;;;21.20;99.90;;;;;;5020147;28;20040;-65
2022/02/16 11:07:06;;;;;;;0.43;0.43;;;21.20;99.90;;;;;;5021036;28;20396;-63
2022/02/16 11:13:47;;;;;;;1.05;0.75;;;21.20;99.90;;;;;;5030252;28;20044;-61
2022/02/16 11:16:17;;;;;;;0.30;0.30;;;21.10;99.90;;;;;;5025335;28;20053;-61
2022/02/16 11:18:47;;;;;;;2.72;1.05;;;21.20;99.90;;;;;;5015659;28;20619;-61
2022/02/16 11:21:17;;;;;;;0.22;0.22;;;21.20;99.90;;;;;;5014637;28;20038;-61
2022/02/16 11:23:50;;;;;;;1.08;0.80;;;21.10;99.90;;;;;;5017680;28;20049;-60
2022/02/16 11:26:38;;;;;;;4.90;0.73;;;21.20;99.90;;;;;;5022216;28;20464;-61
2022/02/16 11:29:27;;;;;;;0.30;0.30;;;21.30;99.90;;;;;;5022240;28;20050;-59
2022/02/16 11:32:21;;;;;;;0.30;0.30;;;21.50;99.90;;;;;;5022805;28;20600;-58
2022/02/16 11:35:28;;;;;;;0.30;0.30;;;21.60;99.90;;;;;;5016185;28;20053;-65
2022/02/16 11:38:07;;;;;;;0.30;0.30;;;21.80;99.90;;;;;;5013836;28;20054;-64
2022/02/16 11:40:39;;;;;;;0.30;0.30;;;21.90;99.90;;;;;;5013656;28;20052;-65
2022/02/16 11:43:10;;;;;;;0.25;0.25;;;22.00;99.90;;;;;;5018934;28;20045;-60
2022/02/16 11:45:51;;;;;;;0.25;0.25;;;22.00;99.90;;;;;;5012654;28;20049;-64
2022/02/16 11:48:43;;;;;;;1.00;0.68;;;22.00;99.90;;;;;;5014617;28;20144;-62
2022/02/16 11:51:22;;;;;;;0.40;0.40;;;22.00;99.90;;;;;;5018481;28;20072;-64
2022/02/16 11:53:51;;;;;;;1.00;0.68;;;22.00;99.90;;;;;;5020326;28;20049;-65
2022/02/16 11:56:22;;;;;;;0.30;0.30;;;22.00;99.90;;;;;;5019880;28;20056;-62
2022/02/16 11:59:14;;;;;;;0.70;0.45;;;22.00;99.90;;;;;;5019668;28;20046;-63
2022/02/16 12:02:07;;;;;;;0.30;0.30;;;21.90;99.90;;;;;;5026619;28;20046;-65
2022/02/16 12:04:48;;;;;;;0.43;0.43;;;21.90;99.90;;;;;;5019289;28;20413;-63
2022/02/16 12:07:30;;;;;;;0.68;0.68;;;21.80;99.90;;;;;;5003308;28;20050;-65
2022/02/16 12:10:16;;;;;;;2.70;0.90;;;21.80;99.90;;;;;;5018730;28;20053;-66
2022/02/16 12:12:46;;;;;;;1.65;1.02;;;21.70;99.90;;;;;;5016517;28;20094;-64
2022/02/16 12:15:34;;;;;;;0.20;0.20;;;21.70;99.90;;;;;;5015417;28;20060;-63
2022/02/16 12:18:02;;;;;;;1.15;1.00;;;21.60;99.90;;;;;;5018914;28;20065;-64
2022/02/16 12:20:31;;;;;;;0.30;0.30;;;21.60;99.90;;;;;;5015256;28;20053;-60
2022/02/16 12:23:04;;;;;;;0.30;0.30;;;21.60;99.90;;;;;;5016404;28;20042;-63
2022/02/16 12:25:33;;;;;;;0.30;0.30;;;21.50;99.90;;;;;;5015664;28;20072;-65
2022/02/16 12:28:04;;;;;;;0.28;0.28;;;21.50;99.90;;;;;;5020764;28;20647;-62
2022/02/16 12:30:40;;;;;;;1.45;0.77;;;21.50;99.90;;;;;;5019110;28;20042;-69
2022/02/16 12:33:28;;;;;;;1.60;1.08;;;21.40;99.90;;;;;;5020579;28;20053;-69
2022/02/16 12:35:56;;;;;;;0.30;0.30;;;21.40;99.90;;;;;;5021957;28;20049;-63
2022/02/16 12:38:25;;;;;;;0.70;0.70;;;21.40;99.90;;;;;;5006928;28;20052;-67
2022/02/16 12:40:53;;;;;;;0.35;0.35;;;21.40;99.90;;;;;;5019904;28;20038;-64
2022/02/16 12:43:21;;;;;;;;;;;21.40;99.90;;;;;;5017090;28;20045;-64
2022/02/16 12:45:49;;;;;;;2.33;1.15;;;21.40;99.90;;;;;;5022160;28;19924;-62
2022/02/16 12:48:17;;;;;;;0.40;0.40;;;21.30;99.90;;;;;;5026083;28;20497;-62
2022/02/16 12:50:45;;;;;;;0.35;0.35;;;21.30;99.90;;;;;;5021878;28;20116;-62
2022/02/16 12:53:16;;;;;;;0.43;0.43;;;21.30;99.90;;;;;;5016407;28;20053;-63
2022/02/16 12:55:45;;;;;;;0.30;0.30;;;21.30;99.90;;;;;;5029872;28;20158;-62
2022/02/16 12:58:13;;;;;;;0.30;0.30;;;21.30;99.90;;;;;;5020713;28;20065;-63
2022/02/16 13:00:47;;;;;;;0.30;0.30;;;21.30;99.90;;;;;;5023697;28;20041;-62
2022/02/16 13:03:23;;;;;;;1.33;1.02;;;21.30;99.90;;;;;;5020157;28;20041;-62
2022/02/16 13:05:50;;;;;;;0.30;0.30;;;21.40;99.90;;;;;;5021960;28;20046;-65
2022/02/16 13:08:24;;;;;;;0.30;0.30;;;21.50;99.90;;;;;;5021558;28;20041;-62
2022/02/16 13:10:52;;;;;;;0.30;0.30;;;21.50;99.90;;;;;;5015786;28;20045;-65
2022/02/16 13:13:31;;;;;;;0.40;0.40;;;21.60;99.90;;;;;;5019755;28;20054;-61